sensor_id;sensor_type;location;lat;lon;timestamp;P1;durP1;ratioP1;P2;durP2;ratioP2
43680;SDS011;29281;50.356;30.894;2022-12-08T06:09:39;15.73;;;10.35;;
43680;SDS011;29281;50.356;30.894;2022-12-08T06:10:46;16.61;;;12.18;;
43680;SDS011;29281;50.356;30.894;2022-12-08T06:11:50;16.91;;;12.03;;
43680;SDS011;29281;50.356;30.894;2022-12-08T06:12:53;18.61;;;13.15;;
43680;SDS011;29281;50.356;30.894;2022-12-08T06:13:57;20.34;;;12.76;;
43680;SDS011;29281;50.356;30.894;2022-12-08T06:15:05;15.01;;;10.81;;
43680;SDS011;29281;50.356;30.894;2022-12-08T06:16:09;17.25;;;11.11;;
43680;SDS011;29281;50.356;30.894;2022-12-08T06:17:17;15.49;;;10.04;;
43680;SDS011;29281;50.356;30.894;2022-12-08T06:18:21;13.41;;;9.60;;
43680;SDS011;29281;50.356;30.894;2022-12-08T06:19:24;19.16;;;10.16;;
43680;SDS011;29281;50.356;30.894;2022-12-08T06:21:59;14.13;;;9.18;;
43680;SDS011;29281;50.356;30.894;2022-12-08T06:23:01;15.88;;;9.56;;
43680;SDS011;29281;50.356;30.894;2022-12-08T06:24:05;14.48;;;9.54;;
43680;SDS011;29281;50.356;30.894;2022-12-08T06:25:10;14.12;;;9.01;;
43680;SDS011;29281;50.356;30.894;2022-12-08T06:26:14;16.69;;;10.15;;
43680;SDS011;29281;50.356;30.894;2022-12-08T06:27:20;14.48;;;8.97;;
43680;SDS011;29281;50.356;30.894;2022-12-08T06:28:24;17.86;;;10.72;;
43680;SDS011;29281;50.356;30.894;2022-12-08T06:29:28;19.76;;;12.41;;
43680;SDS011;29281;50.356;30.894;2022-12-08T06:30:32;19.81;;;13.34;;
43680;SDS011;29281;50.356;30.894;2022-12-08T06:31:35;18.15;;;13.30;;
43680;SDS011;29281;50.356;30.894;2022-12-08T06:32:38;22.02;;;12.68;;
43680;SDS011;29281;50.356;30.894;2022-12-08T06:33:41;19.00;;;13.15;;
43680;SDS011;29281;50.356;30.894;2022-12-08T06:34:44;19.39;;;12.89;;
43680;SDS011;29281;50.356;30.894;2022-12-08T06:35:49;20.59;;;14.01;;
43680;SDS011;29281;50.356;30.894;2022-12-08T07:46:20;14.07;;;9.53;;
43680;SDS011;29281;50.356;30.894;2022-12-08T07:47:26;13.73;;;9.18;;
43680;SDS011;29281;50.356;30.894;2022-12-08T07:48:31;13.52;;;9.36;;
43680;SDS011;29281;50.356;30.894;2022-12-08T07:49:35;15.56;;;9.30;;
43680;SDS011;29281;50.356;30.894;2022-12-08T07:50:40;13.28;;;9.21;;
43680;SDS011;29281;50.356;30.894;2022-12-08T07:51:46;15.18;;;9.74;;
43680;SDS011;29281;50.356;30.894;2022-12-08T07:52:49;13.26;;;9.05;;
43680;SDS011;29281;50.356;30.894;2022-12-08T07:53:53;13.78;;;9.52;;
43680;SDS011;29281;50.356;30.894;2022-12-08T07:54:57;12.12;;;8.45;;
43680;SDS011;29281;50.356;30.894;2022-12-08T07:56:00;13.91;;;9.03;;
43680;SDS011;29281;50.356;30.894;2022-12-08T07:57:07;14.46;;;8.87;;
43680;SDS011;29281;50.356;30.894;2022-12-08T07:58:10;12.43;;;8.59;;
43680;SDS011;29281;50.356;30.894;2022-12-08T07:59:16;11.87;;;8.64;;
43680;SDS011;29281;50.356;30.894;2022-12-08T08:00:19;12.69;;;9.06;;
43680;SDS011;29281;50.356;30.894;2022-12-08T08:01:24;13.54;;;8.97;;
43680;SDS011;29281;50.356;30.894;2022-12-08T08:02:29;14.43;;;9.31;;
43680;SDS011;29281;50.356;30.894;2022-12-08T08:03:32;14.18;;;9.53;;
43680;SDS011;29281;50.356;30.894;2022-12-08T08:06:01;14.33;;;9.71;;
43680;SDS011;29281;50.356;30.894;2022-12-08T08:07:08;12.59;;;8.84;;
43680;SDS011;29281;50.356;30.894;2022-12-08T08:08:11;14.19;;;9.75;;
43680;SDS011;29281;50.356;30.894;2022-12-08T08:09:13;14.41;;;9.59;;
43680;SDS011;29281;50.356;30.894;2022-12-08T08:10:17;13.96;;;9.01;;
43680;SDS011;29281;50.356;30.894;2022-12-08T08:11:19;13.71;;;8.93;;
43680;SDS011;29281;50.356;30.894;2022-12-08T08:12:23;14.56;;;9.48;;
43680;SDS011;29281;50.356;30.894;2022-12-08T08:13:29;14.25;;;9.48;;
43680;SDS011;29281;50.356;30.894;2022-12-08T08:14:32;14.74;;;10.54;;
43680;SDS011;29281;50.356;30.894;2022-12-08T08:15:34;13.31;;;9.39;;
43680;SDS011;29281;50.356;30.894;2022-12-08T08:16:39;13.99;;;9.68;;
43680;SDS011;29281;50.356;30.894;2022-12-08T08:17:47;15.03;;;11.01;;
43680;SDS011;29281;50.356;30.894;2022-12-08T08:18:54;16.83;;;10.39;;
43680;SDS011;29281;50.356;30.894;2022-12-08T08:19:57;23.61;;;14.07;;
43680;SDS011;29281;50.356;30.894;2022-12-08T08:21:00;15.84;;;11.14;;
43680;SDS011;29281;50.356;30.894;2022-12-08T08:22:08;16.18;;;11.46;;
43680;SDS011;29281;50.356;30.894;2022-12-08T08:23:12;18.89;;;13.49;;
43680;SDS011;29281;50.356;30.894;2022-12-08T08:24:16;13.36;;;9.01;;
43680;SDS011;29281;50.356;30.894;2022-12-08T08:25:19;13.44;;;9.71;;
43680;SDS011;29281;50.356;30.894;2022-12-08T08:26:26;18.72;;;10.89;;
43680;SDS011;29281;50.356;30.894;2022-12-08T08:27:29;15.34;;;9.76;;
43680;SDS011;29281;50.356;30.894;2022-12-08T08:28:33;13.55;;;9.33;;
43680;SDS011;29281;50.356;30.894;2022-12-08T08:29:38;16.16;;;10.01;;
43680;SDS011;29281;50.356;30.894;2022-12-08T08:30:42;15.12;;;11.19;;
43680;SDS011;29281;50.356;30.894;2022-12-08T08:31:45;14.95;;;10.92;;
43680;SDS011;29281;50.356;30.894;2022-12-08T08:32:48;14.44;;;10.24;;
43680;SDS011;29281;50.356;30.894;2022-12-08T08:33:51;15.30;;;10.49;;
43680;SDS011;29281;50.356;30.894;2022-12-08T08:34:55;14.78;;;9.73;;
43680;SDS011;29281;50.356;30.894;2022-12-08T08:35:58;14.05;;;9.64;;
43680;SDS011;29281;50.356;30.894;2022-12-08T08:37:02;15.45;;;9.74;;
43680;SDS011;29281;50.356;30.894;2022-12-08T08:38:06;14.05;;;9.09;;
43680;SDS011;29281;50.356;30.894;2022-12-08T08:39:13;12.77;;;9.04;;
43680;SDS011;29281;50.356;30.894;2022-12-08T08:40:17;13.06;;;8.96;;
43680;SDS011;29281;50.356;30.894;2022-12-08T08:41:22;13.29;;;8.91;;
43680;SDS011;29281;50.356;30.894;2022-12-08T08:42:26;13.11;;;8.96;;
43680;SDS011;29281;50.356;30.894;2022-12-08T08:43:30;12.59;;;8.92;;
43680;SDS011;29281;50.356;30.894;2022-12-08T08:44:36;13.17;;;8.88;;
43680;SDS011;29281;50.356;30.894;2022-12-08T08:45:40;12.11;;;8.95;;
43680;SDS011;29281;50.356;30.894;2022-12-08T08:46:44;12.76;;;8.53;;
43680;SDS011;29281;50.356;30.894;2022-12-08T08:47:49;14.21;;;9.39;;
43680;SDS011;29281;50.356;30.894;2022-12-08T08:48:53;12.13;;;8.84;;
43680;SDS011;29281;50.356;30.894;2022-12-08T08:49:58;12.01;;;8.81;;
43680;SDS011;29281;50.356;30.894;2022-12-08T08:51:10;13.61;;;9.04;;
43680;SDS011;29281;50.356;30.894;2022-12-08T08:53:27;11.99;;;7.83;;
43680;SDS011;29281;50.356;30.894;2022-12-08T08:54:32;13.29;;;9.14;;
43680;SDS011;29281;50.356;30.894;2022-12-08T08:55:38;13.99;;;9.89;;
43680;SDS011;29281;50.356;30.894;2022-12-08T08:56:42;12.35;;;9.35;;
43680;SDS011;29281;50.356;30.894;2022-12-08T08:57:45;14.53;;;9.48;;
43680;SDS011;29281;50.356;30.894;2022-12-08T08:58:51;12.75;;;9.17;;
43680;SDS011;29281;50.356;30.894;2022-12-08T08:59:56;14.20;;;9.28;;
43680;SDS011;29281;50.356;30.894;2022-12-08T09:00:58;14.71;;;9.03;;
43680;SDS011;29281;50.356;30.894;2022-12-08T09:02:02;14.19;;;9.19;;
43680;SDS011;29281;50.356;30.894;2022-12-08T09:03:06;13.65;;;8.67;;
43680;SDS011;29281;50.356;30.894;2022-12-08T09:04:09;12.78;;;8.99;;
43680;SDS011;29281;50.356;30.894;2022-12-08T09:05:12;13.22;;;8.39;;
43680;SDS011;29281;50.356;30.894;2022-12-08T09:06:17;15.99;;;8.30;;
43680;SDS011;29281;50.356;30.894;2022-12-08T09:07:21;11.99;;;8.58;;
43680;SDS011;29281;50.356;30.894;2022-12-08T09:08:26;11.48;;;8.11;;
43680;SDS011;29281;50.356;30.894;2022-12-08T09:09:28;11.86;;;8.46;;
43680;SDS011;29281;50.356;30.894;2022-12-08T09:10:32;11.36;;;8.08;;
43680;SDS011;29281;50.356;30.894;2022-12-08T09:11:35;13.31;;;8.64;;
43680;SDS011;29281;50.356;30.894;2022-12-08T09:12:39;12.00;;;7.86;;
43680;SDS011;29281;50.356;30.894;2022-12-08T09:13:47;11.91;;;8.82;;
43680;SDS011;29281;50.356;30.894;2022-12-08T09:14:52;11.12;;;7.56;;
43680;SDS011;29281;50.356;30.894;2022-12-08T09:15:55;13.48;;;8.32;;
43680;SDS011;29281;50.356;30.894;2022-12-08T09:16:58;10.80;;;7.76;;
43680;SDS011;29281;50.356;30.894;2022-12-08T09:18:05;12.99;;;8.29;;
43680;SDS011;29281;50.356;30.894;2022-12-08T09:19:10;13.66;;;8.36;;
43680;SDS011;29281;50.356;30.894;2022-12-08T09:20:13;11.84;;;8.22;;
43680;SDS011;29281;50.356;30.894;2022-12-08T09:21:18;11.51;;;8.06;;
43680;SDS011;29281;50.356;30.894;2022-12-08T09:22:24;11.17;;;7.91;;
43680;SDS011;29281;50.356;30.894;2022-12-08T09:23:28;11.38;;;7.92;;
43680;SDS011;29281;50.356;30.894;2022-12-08T09:24:33;13.59;;;8.58;;
43680;SDS011;29281;50.356;30.894;2022-12-08T09:25:38;12.05;;;8.15;;
43680;SDS011;29281;50.356;30.894;2022-12-08T09:26:43;12.32;;;8.53;;
43680;SDS011;29281;50.356;30.894;2022-12-08T09:27:48;12.09;;;8.25;;
43680;SDS011;29281;50.356;30.894;2022-12-08T09:28:53;12.00;;;8.16;;
43680;SDS011;29281;50.356;30.894;2022-12-08T09:29:59;13.96;;;10.72;;
43680;SDS011;29281;50.356;30.894;2022-12-08T09:31:03;12.78;;;10.04;;
43680;SDS011;29281;50.356;30.894;2022-12-08T09:32:08;12.47;;;8.92;;
43680;SDS011;29281;50.356;30.894;2022-12-08T09:33:11;11.72;;;8.14;;
43680;SDS011;29281;50.356;30.894;2022-12-08T09:34:14;11.74;;;8.11;;
43680;SDS011;29281;50.356;30.894;2022-12-08T09:35:17;10.47;;;7.58;;
43680;SDS011;29281;50.356;30.894;2022-12-08T09:36:21;10.44;;;7.01;;
43680;SDS011;29281;50.356;30.894;2022-12-08T09:37:24;11.39;;;7.08;;
43680;SDS011;29281;50.356;30.894;2022-12-08T09:38:33;10.73;;;7.52;;
43680;SDS011;29281;50.356;30.894;2022-12-08T09:39:36;13.29;;;7.61;;
43680;SDS011;29281;50.356;30.894;2022-12-08T09:40:50;10.64;;;7.72;;
43680;SDS011;29281;50.356;30.894;2022-12-08T09:41:58;10.73;;;7.64;;
43680;SDS011;29281;50.356;30.894;2022-12-08T09:43:18;11.38;;;7.66;;
43680;SDS011;29281;50.356;30.894;2022-12-08T09:45:48;11.79;;;8.06;;
43680;SDS011;29281;50.356;30.894;2022-12-08T09:46:54;12.15;;;7.74;;
43680;SDS011;29281;50.356;30.894;2022-12-08T09:48:21;11.64;;;7.91;;
43680;SDS011;29281;50.356;30.894;2022-12-08T09:49:26;11.27;;;8.14;;
43680;SDS011;29281;50.356;30.894;2022-12-08T09:50:51;12.39;;;7.92;;
43680;SDS011;29281;50.356;30.894;2022-12-08T09:51:58;11.46;;;8.18;;
43680;SDS011;29281;50.356;30.894;2022-12-08T09:53:09;13.17;;;8.30;;
43680;SDS011;29281;50.356;30.894;2022-12-08T09:54:19;11.75;;;8.12;;
43680;SDS011;29281;50.356;30.894;2022-12-08T09:56:47;13.63;;;9.48;;
43680;SDS011;29281;50.356;30.894;2022-12-08T09:57:55;13.15;;;8.98;;
43680;SDS011;29281;50.356;30.894;2022-12-08T09:59:05;14.37;;;8.87;;
43680;SDS011;29281;50.356;30.894;2022-12-08T10:00:10;12.17;;;8.48;;
43680;SDS011;29281;50.356;30.894;2022-12-08T10:01:15;13.38;;;8.91;;
43680;SDS011;29281;50.356;30.894;2022-12-08T10:02:21;13.79;;;8.76;;
43680;SDS011;29281;50.356;30.894;2022-12-08T10:03:28;11.98;;;7.82;;
43680;SDS011;29281;50.356;30.894;2022-12-08T10:04:36;13.14;;;8.32;;
43680;SDS011;29281;50.356;30.894;2022-12-08T10:05:46;13.45;;;8.36;;
43680;SDS011;29281;50.356;30.894;2022-12-08T10:06:55;14.50;;;8.52;;
43680;SDS011;29281;50.356;30.894;2022-12-08T10:08:11;11.92;;;8.10;;
43680;SDS011;29281;50.356;30.894;2022-12-08T10:10:45;12.48;;;7.81;;
43680;SDS011;29281;50.356;30.894;2022-12-08T10:11:59;12.62;;;8.23;;
43680;SDS011;29281;50.356;30.894;2022-12-08T10:17:16;13.03;;;7.91;;
43680;SDS011;29281;50.356;30.894;2022-12-08T10:18:23;12.71;;;7.87;;
43680;SDS011;29281;50.356;30.894;2022-12-08T10:19:29;13.03;;;8.16;;
43680;SDS011;29281;50.356;30.894;2022-12-08T10:20:37;12.43;;;8.03;;
43680;SDS011;29281;50.356;30.894;2022-12-08T10:21:43;13.83;;;8.44;;
43680;SDS011;29281;50.356;30.894;2022-12-08T10:23:01;13.99;;;8.80;;
43680;SDS011;29281;50.356;30.894;2022-12-08T10:24:03;12.40;;;8.14;;
43680;SDS011;29281;50.356;30.894;2022-12-08T10:25:15;13.41;;;8.10;;
43680;SDS011;29281;50.356;30.894;2022-12-08T10:26:31;13.10;;;8.38;;
43680;SDS011;29281;50.356;30.894;2022-12-08T10:27:35;13.69;;;9.02;;
43680;SDS011;29281;50.356;30.894;2022-12-08T10:28:40;13.88;;;8.74;;
43680;SDS011;29281;50.356;30.894;2022-12-08T10:29:45;14.68;;;9.23;;
43680;SDS011;29281;50.356;30.894;2022-12-08T10:30:48;13.01;;;8.71;;
43680;SDS011;29281;50.356;30.894;2022-12-08T10:31:52;12.72;;;8.15;;
43680;SDS011;29281;50.356;30.894;2022-12-08T10:32:57;14.21;;;8.86;;
43680;SDS011;29281;50.356;30.894;2022-12-08T10:34:11;14.81;;;9.01;;
43680;SDS011;29281;50.356;30.894;2022-12-08T10:35:22;13.84;;;8.93;;
43680;SDS011;29281;50.356;30.894;2022-12-08T10:36:43;12.71;;;8.70;;
43680;SDS011;29281;50.356;30.894;2022-12-08T10:37:55;12.72;;;8.99;;
43680;SDS011;29281;50.356;30.894;2022-12-08T10:39:00;13.64;;;8.12;;
43680;SDS011;29281;50.356;30.894;2022-12-08T10:41:16;13.02;;;9.07;;
43680;SDS011;29281;50.356;30.894;2022-12-08T10:42:21;14.14;;;9.27;;
43680;SDS011;29281;50.356;30.894;2022-12-08T10:43:25;13.14;;;8.97;;
43680;SDS011;29281;50.356;30.894;2022-12-08T10:44:29;12.32;;;8.84;;
43680;SDS011;29281;50.356;30.894;2022-12-08T10:45:36;13.09;;;8.16;;
43680;SDS011;29281;50.356;30.894;2022-12-08T10:46:45;12.54;;;8.38;;
43680;SDS011;29281;50.356;30.894;2022-12-08T10:47:54;13.16;;;8.85;;
43680;SDS011;29281;50.356;30.894;2022-12-08T10:51:29;12.27;;;8.56;;
43680;SDS011;29281;50.356;30.894;2022-12-08T10:52:38;12.26;;;8.23;;
43680;SDS011;29281;50.356;30.894;2022-12-08T10:53:44;13.22;;;8.38;;
43680;SDS011;29281;50.356;30.894;2022-12-08T10:54:52;15.82;;;9.42;;
43680;SDS011;29281;50.356;30.894;2022-12-08T10:57:10;15.46;;;9.03;;
43680;SDS011;29281;50.356;30.894;2022-12-08T10:59:40;12.02;;;8.18;;
43680;SDS011;29281;50.356;30.894;2022-12-08T11:00:44;13.48;;;8.77;;
43680;SDS011;29281;50.356;30.894;2022-12-08T11:01:48;13.59;;;8.74;;
43680;SDS011;29281;50.356;30.894;2022-12-08T11:02:58;14.24;;;8.85;;
43680;SDS011;29281;50.356;30.894;2022-12-08T11:04:14;14.47;;;9.03;;
43680;SDS011;29281;50.356;30.894;2022-12-08T11:07:37;17.29;;;9.59;;
43680;SDS011;29281;50.356;30.894;2022-12-08T11:08:53;15.26;;;9.24;;
43680;SDS011;29281;50.356;30.894;2022-12-08T11:09:58;14.17;;;9.39;;
43680;SDS011;29281;50.356;30.894;2022-12-08T11:11:04;13.88;;;8.71;;
43680;SDS011;29281;50.356;30.894;2022-12-08T11:12:14;16.06;;;10.06;;
43680;SDS011;29281;50.356;30.894;2022-12-08T11:13:26;16.17;;;9.67;;
43680;SDS011;29281;50.356;30.894;2022-12-08T11:14:32;15.84;;;9.84;;
43680;SDS011;29281;50.356;30.894;2022-12-08T11:15:38;17.31;;;10.09;;
43680;SDS011;29281;50.356;30.894;2022-12-08T11:16:43;15.90;;;9.94;;
43680;SDS011;29281;50.356;30.894;2022-12-08T11:17:47;16.88;;;10.49;;
43680;SDS011;29281;50.356;30.894;2022-12-08T11:19:00;16.17;;;9.91;;
43680;SDS011;29281;50.356;30.894;2022-12-08T11:21:19;15.77;;;9.53;;
43680;SDS011;29281;50.356;30.894;2022-12-08T11:22:25;15.60;;;10.39;;
43680;SDS011;29281;50.356;30.894;2022-12-08T11:23:38;17.32;;;10.14;;
43680;SDS011;29281;50.356;30.894;2022-12-08T11:24:45;16.59;;;9.92;;
43680;SDS011;29281;50.356;30.894;2022-12-08T11:27:26;17.08;;;9.42;;
43680;SDS011;29281;50.356;30.894;2022-12-08T11:28:32;15.94;;;9.30;;
43680;SDS011;29281;50.356;30.894;2022-12-08T11:29:37;15.50;;;10.09;;
43680;SDS011;29281;50.356;30.894;2022-12-08T11:30:42;14.47;;;9.38;;
43680;SDS011;29281;50.356;30.894;2022-12-08T11:31:52;16.27;;;9.51;;
43680;SDS011;29281;50.356;30.894;2022-12-08T11:34:18;13.96;;;9.27;;
43680;SDS011;29281;50.356;30.894;2022-12-08T11:35:29;16.96;;;10.35;;
43680;SDS011;29281;50.356;30.894;2022-12-08T11:36:36;16.11;;;9.54;;
43680;SDS011;29281;50.356;30.894;2022-12-08T11:37:44;17.70;;;11.16;;
43680;SDS011;29281;50.356;30.894;2022-12-08T11:38:48;16.04;;;10.63;;
43680;SDS011;29281;50.356;30.894;2022-12-08T11:39:55;16.80;;;9.97;;
43680;SDS011;29281;50.356;30.894;2022-12-08T11:41:06;15.64;;;9.95;;
43680;SDS011;29281;50.356;30.894;2022-12-08T11:42:19;15.88;;;9.86;;
43680;SDS011;29281;50.356;30.894;2022-12-08T11:43:28;16.82;;;10.18;;
43680;SDS011;29281;50.356;30.894;2022-12-08T11:44:46;15.61;;;10.30;;
43680;SDS011;29281;50.356;30.894;2022-12-08T11:46:00;19.62;;;13.52;;
43680;SDS011;29281;50.356;30.894;2022-12-08T11:50:10;16.94;;;11.28;;
43680;SDS011;29281;50.356;30.894;2022-12-08T11:51:27;17.97;;;10.11;;
43680;SDS011;29281;50.356;30.894;2022-12-08T11:52:32;16.79;;;10.47;;
43680;SDS011;29281;50.356;30.894;2022-12-08T11:55:20;19.67;;;10.65;;
43680;SDS011;29281;50.356;30.894;2022-12-08T11:56:42;17.82;;;10.91;;
43680;SDS011;29281;50.356;30.894;2022-12-08T11:57:48;16.46;;;10.08;;
43680;SDS011;29281;50.356;30.894;2022-12-08T11:58:54;16.89;;;10.33;;
43680;SDS011;29281;50.356;30.894;2022-12-08T12:00:03;16.98;;;10.61;;
43680;SDS011;29281;50.356;30.894;2022-12-08T12:01:15;16.59;;;10.01;;
43680;SDS011;29281;50.356;30.894;2022-12-08T12:02:27;16.68;;;10.57;;
43680;SDS011;29281;50.356;30.894;2022-12-08T12:03:38;15.80;;;10.02;;
43680;SDS011;29281;50.356;30.894;2022-12-08T12:04:49;17.39;;;10.11;;
43680;SDS011;29281;50.356;30.894;2022-12-08T12:06:06;16.96;;;10.14;;
43680;SDS011;29281;50.356;30.894;2022-12-08T12:11:54;16.32;;;9.68;;
43680;SDS011;29281;50.356;30.894;2022-12-08T12:19:15;19.78;;;10.81;;
43680;SDS011;29281;50.356;30.894;2022-12-08T12:20:26;19.52;;;11.26;;
43680;SDS011;29281;50.356;30.894;2022-12-08T12:21:42;18.33;;;11.03;;
43680;SDS011;29281;50.356;30.894;2022-12-08T12:22:51;19.68;;;11.29;;
43680;SDS011;29281;50.356;30.894;2022-12-08T12:23:58;18.04;;;11.32;;
43680;SDS011;29281;50.356;30.894;2022-12-08T12:25:20;19.14;;;11.53;;
43680;SDS011;29281;50.356;30.894;2022-12-08T12:26:28;19.62;;;11.22;;
43680;SDS011;29281;50.356;30.894;2022-12-08T12:27:40;15.37;;;9.64;;
43680;SDS011;29281;50.356;30.894;2022-12-08T12:28:48;16.81;;;9.93;;
43680;SDS011;29281;50.356;30.894;2022-12-08T12:30:04;16.99;;;9.92;;
43680;SDS011;29281;50.356;30.894;2022-12-08T12:31:11;16.79;;;10.21;;
43680;SDS011;29281;50.356;30.894;2022-12-08T12:32:18;14.34;;;9.86;;
43680;SDS011;29281;50.356;30.894;2022-12-08T12:33:23;17.59;;;10.38;;
43680;SDS011;29281;50.356;30.894;2022-12-08T12:34:30;16.19;;;10.11;;
43680;SDS011;29281;50.356;30.894;2022-12-08T12:35:42;17.48;;;10.23;;
43680;SDS011;29281;50.356;30.894;2022-12-08T12:36:52;17.27;;;10.22;;
43680;SDS011;29281;50.356;30.894;2022-12-08T12:38:05;16.08;;;10.15;;
43680;SDS011;29281;50.356;30.894;2022-12-08T12:39:22;15.37;;;9.22;;
43680;SDS011;29281;50.356;30.894;2022-12-08T12:40:33;15.91;;;9.82;;
43680;SDS011;29281;50.356;30.894;2022-12-08T12:44:07;14.73;;;9.21;;
43680;SDS011;29281;50.356;30.894;2022-12-08T12:49:34;15.93;;;9.91;;
43680;SDS011;29281;50.356;30.894;2022-12-08T12:52:49;14.73;;;9.53;;
43680;SDS011;29281;50.356;30.894;2022-12-08T12:53:53;14.85;;;9.68;;
43680;SDS011;29281;50.356;30.894;2022-12-08T12:56:06;15.53;;;9.77;;
43680;SDS011;29281;50.356;30.894;2022-12-08T13:03:33;13.91;;;8.79;;
43680;SDS011;29281;50.356;30.894;2022-12-08T13:04:38;14.61;;;8.76;;
43680;SDS011;29281;50.356;30.894;2022-12-08T13:05:51;14.83;;;9.26;;
43680;SDS011;29281;50.356;30.894;2022-12-08T13:06:56;14.84;;;9.15;;
43680;SDS011;29281;50.356;30.894;2022-12-08T13:08:02;14.90;;;8.99;;
43680;SDS011;29281;50.356;30.894;2022-12-08T13:09:20;15.06;;;9.05;;
43680;SDS011;29281;50.356;30.894;2022-12-08T13:10:30;14.66;;;9.08;;
43680;SDS011;29281;50.356;30.894;2022-12-08T13:11:43;12.66;;;7.99;;
43680;SDS011;29281;50.356;30.894;2022-12-08T18:10:39;27.52;;;14.09;;
43680;SDS011;29281;50.356;30.894;2022-12-08T18:11:42;27.61;;;14.06;;
43680;SDS011;29281;50.356;30.894;2022-12-08T18:12:49;34.41;;;15.02;;
43680;SDS011;29281;50.356;30.894;2022-12-08T18:13:53;39.19;;;16.45;;
43680;SDS011;29281;50.356;30.894;2022-12-08T18:14:58;48.76;;;18.36;;
43680;SDS011;29281;50.356;30.894;2022-12-08T18:16:03;47.74;;;19.71;;
43680;SDS011;29281;50.356;30.894;2022-12-08T18:17:07;52.68;;;20.38;;
43680;SDS011;29281;50.356;30.894;2022-12-08T18:18:12;50.01;;;20.09;;
43680;SDS011;29281;50.356;30.894;2022-12-08T18:19:15;50.61;;;20.23;;
43680;SDS011;29281;50.356;30.894;2022-12-08T18:20:19;55.30;;;21.29;;
43680;SDS011;29281;50.356;30.894;2022-12-08T18:21:22;51.57;;;21.62;;
43680;SDS011;29281;50.356;30.894;2022-12-08T18:22:29;52.40;;;21.68;;
43680;SDS011;29281;50.356;30.894;2022-12-08T18:23:33;58.60;;;21.94;;
43680;SDS011;29281;50.356;30.894;2022-12-08T18:24:42;60.14;;;22.57;;
43680;SDS011;29281;50.356;30.894;2022-12-08T18:25:45;63.91;;;22.76;;
43680;SDS011;29281;50.356;30.894;2022-12-08T18:26:50;62.17;;;21.72;;
43680;SDS011;29281;50.356;30.894;2022-12-08T18:27:54;54.84;;;21.19;;
43680;SDS011;29281;50.356;30.894;2022-12-08T18:28:58;50.86;;;19.83;;
43680;SDS011;29281;50.356;30.894;2022-12-08T18:30:02;58.27;;;22.16;;
43680;SDS011;29281;50.356;30.894;2022-12-08T18:31:08;62.52;;;23.52;;
43680;SDS011;29281;50.356;30.894;2022-12-08T18:32:33;58.76;;;20.08;;
43680;SDS011;29281;50.356;30.894;2022-12-08T18:33:39;60.48;;;21.04;;
43680;SDS011;29281;50.356;30.894;2022-12-08T18:34:43;59.04;;;20.05;;
43680;SDS011;29281;50.356;30.894;2022-12-08T18:35:46;53.86;;;19.06;;
43680;SDS011;29281;50.356;30.894;2022-12-08T18:36:50;53.48;;;19.89;;
43680;SDS011;29281;50.356;30.894;2022-12-08T18:37:53;56.88;;;21.05;;
43680;SDS011;29281;50.356;30.894;2022-12-08T18:38:57;53.79;;;19.62;;
43680;SDS011;29281;50.356;30.894;2022-12-08T18:40:01;52.42;;;19.46;;
43680;SDS011;29281;50.356;30.894;2022-12-08T18:41:07;56.93;;;20.39;;
43680;SDS011;29281;50.356;30.894;2022-12-08T18:42:12;53.09;;;19.24;;
43680;SDS011;29281;50.356;30.894;2022-12-08T18:43:25;44.54;;;18.94;;
43680;SDS011;29281;50.356;30.894;2022-12-08T18:44:29;49.44;;;19.12;;
43680;SDS011;29281;50.356;30.894;2022-12-08T18:45:33;49.35;;;19.87;;
43680;SDS011;29281;50.356;30.894;2022-12-08T18:46:39;51.32;;;19.36;;
43680;SDS011;29281;50.356;30.894;2022-12-08T18:47:42;45.56;;;18.88;;
43680;SDS011;29281;50.356;30.894;2022-12-08T18:48:49;46.43;;;18.19;;
43680;SDS011;29281;50.356;30.894;2022-12-08T18:49:55;44.82;;;18.70;;
43680;SDS011;29281;50.356;30.894;2022-12-08T18:51:00;46.13;;;18.79;;
43680;SDS011;29281;50.356;30.894;2022-12-08T18:52:05;48.36;;;18.02;;
43680;SDS011;29281;50.356;30.894;2022-12-08T18:53:08;43.52;;;18.36;;
43680;SDS011;29281;50.356;30.894;2022-12-08T18:54:10;43.02;;;17.87;;
43680;SDS011;29281;50.356;30.894;2022-12-08T18:55:15;47.70;;;19.36;;
43680;SDS011;29281;50.356;30.894;2022-12-08T18:56:23;43.52;;;18.82;;
43680;SDS011;29281;50.356;30.894;2022-12-08T18:57:28;46.16;;;19.61;;
43680;SDS011;29281;50.356;30.894;2022-12-08T18:58:31;54.09;;;20.09;;
43680;SDS011;29281;50.356;30.894;2022-12-08T18:59:36;47.77;;;19.37;;
43680;SDS011;29281;50.356;30.894;2022-12-08T19:00:41;56.54;;;20.46;;
43680;SDS011;29281;50.356;30.894;2022-12-08T19:01:45;49.24;;;19.71;;
43680;SDS011;29281;50.356;30.894;2022-12-08T19:02:52;56.74;;;20.35;;
43680;SDS011;29281;50.356;30.894;2022-12-08T19:04:02;54.65;;;20.51;;
43680;SDS011;29281;50.356;30.894;2022-12-08T19:05:06;53.62;;;21.23;;
43680;SDS011;29281;50.356;30.894;2022-12-08T19:06:10;55.36;;;19.66;;
43680;SDS011;29281;50.356;30.894;2022-12-08T19:07:15;52.03;;;20.63;;
43680;SDS011;29281;50.356;30.894;2022-12-08T19:08:21;52.32;;;19.52;;
43680;SDS011;29281;50.356;30.894;2022-12-08T19:09:26;51.36;;;20.75;;
43680;SDS011;29281;50.356;30.894;2022-12-08T19:10:30;50.14;;;19.88;;
43680;SDS011;29281;50.356;30.894;2022-12-08T19:11:34;49.04;;;20.31;;
43680;SDS011;29281;50.356;30.894;2022-12-08T19:12:36;52.39;;;20.56;;
43680;SDS011;29281;50.356;30.894;2022-12-08T19:13:40;54.94;;;20.56;;
43680;SDS011;29281;50.356;30.894;2022-12-08T19:14:43;53.15;;;20.95;;
43680;SDS011;29281;50.356;30.894;2022-12-08T19:15:46;51.91;;;19.57;;
43680;SDS011;29281;50.356;30.894;2022-12-08T19:16:50;53.05;;;20.01;;
43680;SDS011;29281;50.356;30.894;2022-12-08T19:17:54;49.16;;;19.92;;
43680;SDS011;29281;50.356;30.894;2022-12-08T19:18:59;45.62;;;18.92;;
43680;SDS011;29281;50.356;30.894;2022-12-08T19:20:16;44.77;;;19.11;;
43680;SDS011;29281;50.356;30.894;2022-12-08T19:21:20;49.15;;;19.72;;
43680;SDS011;29281;50.356;30.894;2022-12-08T19:22:24;46.98;;;18.90;;
43680;SDS011;29281;50.356;30.894;2022-12-08T19:23:32;43.41;;;19.30;;
43680;SDS011;29281;50.356;30.894;2022-12-08T19:24:37;47.19;;;19.05;;
43680;SDS011;29281;50.356;30.894;2022-12-08T19:25:39;49.43;;;19.65;;
43680;SDS011;29281;50.356;30.894;2022-12-08T19:26:43;45.69;;;17.69;;
43680;SDS011;29281;50.356;30.894;2022-12-08T19:27:49;47.60;;;17.99;;
43680;SDS011;29281;50.356;30.894;2022-12-08T19:28:53;45.12;;;18.29;;
43680;SDS011;29281;50.356;30.894;2022-12-08T19:29:58;40.96;;;17.99;;
43680;SDS011;29281;50.356;30.894;2022-12-08T19:31:04;39.86;;;17.24;;
43680;SDS011;29281;50.356;30.894;2022-12-08T19:32:11;38.59;;;17.55;;
43680;SDS011;29281;50.356;30.894;2022-12-08T19:33:15;35.58;;;17.34;;
43680;SDS011;29281;50.356;30.894;2022-12-08T19:34:20;39.51;;;17.27;;
43680;SDS011;29281;50.356;30.894;2022-12-08T19:35:23;37.17;;;16.20;;
43680;SDS011;29281;50.356;30.894;2022-12-08T19:36:27;36.33;;;16.84;;
43680;SDS011;29281;50.356;30.894;2022-12-08T19:37:32;33.29;;;15.61;;
43680;SDS011;29281;50.356;30.894;2022-12-08T19:38:35;34.51;;;15.90;;
43680;SDS011;29281;50.356;30.894;2022-12-08T19:39:58;34.16;;;15.23;;